André Pereira

Recruteur - Fluminense
4 Avr 2027
Dimanche
Processus

Personnalité

Adaptabilité (3) Ambition (3) Controverse (12) Loyauté (7) Pression (14) Professionnalisme (12) Sportivité (7) Tempérament (8)

Profil

Style d'entraînement Démocratique
Diplôme Continental B
Détermination 10
Gestion des joueurs 5
Motivation 7
Discipline 15
Satisfaction professionnelle
100%
Fatigue
0%
Rôle Recruteur
Salaire 114.4K p/s
Contrat 14.03.2028

Performance

Comportement Bon
Efficacité de l'entraînement
43%
Développement des joueurs
25%
Prévention des blessures
40%
Mise en place tactique
40%

Événements récents

A participé à une réunion de recrutement maintenant
A recommandé une cible de transfert maintenant
A évalué un joueur maintenant
A évalué un joueur maintenant
A évalué un joueur maintenant
A évalué un joueur 7j
A évalué un joueur 7j
A évalué un joueur 7j

Suivi en cours

183
Joueur Club Statut Capacité Confiance Observé Dernière observation Dernier vote
Cesar Corona Veracruz Actif 144 / 132 40% 13 03.04.2027 -
Gabriel Brazão Santos Actif 136 / 143 40% 6 03.04.2027 -
Axel Openda KV Oostende Actif 129 / 134 40% 5 03.04.2027 -
Pol Tristán Bradford City Actif 118 / 127 40% 2 03.04.2027 -
Leandro Andrade Polissia Actif 137 / 128 40% 3 03.04.2027 -
Martim Cunha Porto Actif 108 / 100 40% 4 03.04.2027 -
Egoitz Arana Real Sociedad Actif 113 / 106 40% 4 03.04.2027 -
Riley Owen Pergolettese Actif 105 / 102 40% 1 03.04.2027 -
Nacer Tielemans Mouscron Actif 127 / 143 40% 1 03.04.2027 -
João Palhinha Benfica Actif 158 / 148 40% 8 30.03.2027 -
Hwang In-Beom Porto Actif 142 / 152 40% 4 30.03.2027 -
Carlos Rodríguez Cruz Azul Actif 132 / 145 40% 4 30.03.2027 -
Jonathan Arteaga Veracruz Actif 111 / 111 40% 1 30.03.2027 -
Bernardo Lima Porto Actif 90 / 104 40% 1 30.03.2027 -
Radek Vítek Middlesbrough Actif 144 / 133 40% 7 28.03.2027 -
Adriel Torreense Actif 120 / 121 40% 4 28.03.2027 -
Marquinhos Spartak Moscow Actif 130 / 129 40% 5 28.03.2027 -
José Paradela Cruz Azul Actif 146 / 131 40% 3 28.03.2027 -
Diogo Gonçalves Konyaspor Actif 125 / 117 40% 1 28.03.2027 -
Louis Leroux FC Nantes Actif 122 / 129 40% 3 26.03.2027 -
Martim Fernandes Porto Actif 142 / 128 40% 1 26.03.2027 -
Eduardo Felicíssimo Sporting CP Actif 105 / 125 40% 1 26.03.2027 -
Luis Romo Guadalajara Actif 144 / 145 40% 4 24.03.2027 -
Murphy Cooper Plymouth Argyle Actif 116 / 121 40% 5 24.03.2027 -
Lukáš Provod Slavia Prague Actif 144 / 141 40% 5 24.03.2027 -
Haissem Hassan Bloemfontein Celtic Actif 129 / 143 40% 5 23.03.2027 -
Brian Rodríguez Club America Actif 132 / 135 40% 1 23.03.2027 -
Andrea Colpani Monza Actif 133 / 133 40% 2 22.03.2027 -
Sebastián Córdova Pumas UNAM Actif 129 / 136 40% 1 22.03.2027 -
Dany Mota Monza Actif 141 / 131 40% 2 21.03.2027 -
Rabby Nzingoula West Bromwich Albion Actif 117 / 120 40% 2 21.03.2027 -
Luca Orellano Monterrey Actif 133 / 125 40% 1 21.03.2027 -
Tiago Freitas Benfica Actif 104 / 120 40% 1 21.03.2027 -
Bernardo Fontes Braga Actif 122 / 138 40% 5 18.03.2027 -
José Pachuca Puebla Actif 105 / 106 40% 1 18.03.2027 -
Alejandro Zendejas Club America Actif 144 / 133 40% 3 17.03.2027 -
Daniil Frolkin Fakel Actif 116 / 118 40% 1 17.03.2027 -
Lorenzo Palmisani Frosinone Actif 130 / 122 40% 1 17.03.2027 -
Zach Hemming Chesterfield Actif 110 / 107 40% 1 17.03.2027 -
Juan Diego Castillo Vitoria Guimaraes Actif 124 / 117 40% 6 13.03.2027 -
Christ Inao Oulaï Fiorentina Actif 136 / 131 40% 1 12.03.2027 -
Lennon Miller Udinese Actif 127 / 124 40% 1 12.03.2027 -
Antonio Gomis Vizela Actif 115 / 131 40% 7 11.03.2027 -
Edoardo Corvi Parma Actif 135 / 135 40% 1 11.03.2027 -
Soufiane Rahimi Al Ain Actif 143 / 124 40% 2 10.03.2027 -
Daniel Banjaqui Benfica Actif 105 / 111 40% 2 08.03.2027 -
Thorgan Nainggolan Mouscron Actif 101 / 123 40% 1 08.03.2027 -
James Dornelly Peterborough United Actif 98 / 110 40% 1 08.03.2027 -
Daniel Bragança Sporting CP Actif 145 / 144 40% 1 08.03.2027 -
Orbelín Pineda Monterrey Actif 142 / 134 40% 2 07.03.2027 -
Jordan Amissah Burton Albion Actif 103 / 111 40% 1 06.03.2027 -
Vinícius Lira Santos Actif 119 / 117 40% 1 04.03.2027 -
Leandro Martins Benfica Actif 90 / 95 40% 1 04.03.2027 -
Bertrand Traoré Sunderland Actif 127 / 140 40% 1 03.03.2027 -
Alpha Touré FC Metz Actif 106 / 115 40% 1 02.03.2027 -
Efraín Álvarez Guadalajara Actif 128 / 121 40% 3 01.03.2027 -
Chiquinho Alverca Actif 134 / 133 40% 2 01.03.2027 -
Theo Bongonda Al-Faisaly Actif 134 / 133 40% 1 27.02.2027 -
George Wickens Lincoln City Actif 124 / 120 40% 4 26.02.2027 -
Taye Ashby-Hammond Walsall Actif 104 / 117 40% 1 26.02.2027 -
Elia Caprile Cagliari Actif 153 / 157 40% 1 26.02.2027 -
Michy Fellaini KV Oostende Actif 133 / 131 40% 7 20.02.2027 -
Renan Lodi Atlético Mineiro Actif 136 / 144 40% 7 20.02.2027 -
Iñaki Peña Panathinaikos Actif 140 / 147 40% 2 18.02.2027 -
Nathan Bishop AFC Wimbledon Actif 106 / 113 40% 2 18.02.2027 -
Vitor Hugo Lusitânia Lourosa Actif 98 / 105 40% 2 16.02.2027 -
Beau Reus Waasland-Beveren Actif 126 / 117 40% 1 16.02.2027 -
Mandla Jali SuperSport United Actif 119 / 126 40% 3 15.02.2027 -
João Carvalho Estoril Praia Actif 125 / 136 40% 3 14.02.2027 -
Michael Cooper Sheffield United Actif 128 / 136 40% 3 12.02.2027 -
Carl Rushworth Coventry City Actif 135 / 139 40% 2 12.02.2027 -
Matthieu Epolo Standard Liege Actif 120 / 125 40% 1 12.02.2027 -
João Valido Chaves Actif 116 / 116 40% 2 11.02.2027 -
Jesús Ricardo Angulo Toluca Actif 137 / 128 40% 3 10.02.2027 -
Matheus Pereira Cruzeiro Actif 141 / 135 40% 1 10.02.2027 -
Sam Tickle Wigan Athletic Actif 125 / 116 40% 4 07.02.2027 -
Patrick Sequeira Casa Pia Actif 119 / 120 40% 4 07.02.2027 -
Petar Stanić Ludogorets Actif 136 / 123 40% 1 06.02.2027 -
Killian Cahill Leyton Orient Actif 110 / 93 40% 1 05.02.2027 -
Jakub Stolarczyk Leicester City Actif 135 / 133 40% 2 03.02.2027 -
Myles Roberts Doncaster Rovers Actif 100 / 95 40% 1 03.02.2027 -
Sławomir Abramowicz Jagiellonia Actif 116 / 114 40% 1 03.02.2027 -
Alfonso Pastor Maritimo Actif 115 / 109 40% 6 02.02.2027 -
Ruslan Neshcheret Dynamo Kyiv Actif 116 / 109 40% 1 02.02.2027 -
Andreas Pereira Palmeiras Actif 145 / 145 40% 1 28.01.2027 -
Gianluca Prestianni Benfica Actif 140 / 144 40% 1 24.01.2027 -
Evidence Billiat Ajax Cape Town Actif 111 / 106 40% 1 22.01.2027 -
Jamie Cumming Oxford United Actif 124 / 132 40% 1 22.01.2027 -
Pablo Rosario Porto Actif 137 / 150 40% 2 21.01.2027 -
Marcelo Allende Mamelodi Sundowns Actif 129 / 138 40% 1 21.01.2027 -
Christian Joel Sánchez Leiria Actif 118 / 115 40% 3 20.01.2027 -
Anthony Patterson Wrexham Actif 128 / 135 40% 4 20.01.2027 -
Hugo Souza Corinthians Actif 145 / 136 40% 2 19.01.2027 -
Santi García Gil Vicente Actif 125 / 138 40% 3 17.01.2027 -
Nemanja Radonjić Crvena Zvezda Actif 138 / 140 40% 1 17.01.2027 -
Enzo Díaz Sport Recife Actif 134 / 139 40% 2 09.01.2027 -
Francis Amuzu Grêmio Actif 137 / 138 40% 1 07.01.2027 -
Yehvann Diouf OGC Nice Actif 148 / 138 40% 1 02.01.2027 -
Will Dennis Milton Keynes Dons Actif 100 / 91 40% 2 29.12.2026 -
Dmytro Riznyk Shakhtar Actif 138 / 134 40% 1 25.12.2026 -
Matheus Mendes Alverca Actif 111 / 129 40% 2 23.12.2026 -
Paulo Henrique Vasco da Gama Actif 138 / 130 40% 4 18.12.2026 -
Nuno Santos Sporting CP Actif 138 / 148 40% 1 16.12.2026 -
Bruno Brígido America Mineiro Actif 107 / 115 76% 1 14.12.2026 Approuver
Marcel Ruiz Toluca Actif 140 / 135 40% 1 14.12.2026 -
Ademir Bahia Refusé 124 / 117 76% 1 01.12.2026 -
Sem Westerveld Zaragoza Actif 117 / 108 40% 1 29.11.2026 -
Marcos Antonio Sport Recife Actif 135 / 130 40% 3 27.11.2026 -
Ismaël Bennacer Palmeiras Actif 152 / 145 40% 1 27.11.2026 -
Vitor Carvalho Braga Actif 137 / 144 40% 5 25.11.2026 -
Erik Lira Cruz Azul Actif 133 / 127 40% 1 25.11.2026 -
Danilo Botafogo Actif 141 / 142 40% 1 25.11.2026 -
William Cruzeiro Actif 132 / 125 40% 4 24.11.2026 -
Gustaf Lagerbielke Braga Actif 137 / 135 40% 3 24.11.2026 -
Kenny Tete Fulham Refusé 141 / 153 40% 3 24.11.2026 Refuser
Martín Tejón Maritimo Actif 112 / 126 40% 2 23.11.2026 -
Vinícius Lopes Santa Clara Actif 115 / 126 40% 3 22.11.2026 -
Jon Karrikaburu Burgos Actif 124 / 120 40% 2 22.11.2026 -
Igor Nikić Mirandés Actif 125 / 121 40% 1 21.11.2026 -
Jan Bednarek Porto Actif 148 / 158 40% 3 15.11.2026 -
Zé Leite Oliveirense Actif 120 / 120 40% 3 13.11.2026 -
Camilo Durán Bloemfontein Celtic Actif 118 / 104 40% 3 13.11.2026 -
Nicolò Tresoldi Club Brugge Actif 133 / 133 40% 1 13.11.2026 -
Sorriso Famalicao Actif 127 / 132 40% 3 12.11.2026 -
Mésaque Djú Portimonense Actif 109 / 106 40% 1 12.11.2026 -
Jalen Blesa Rio Ave Actif 124 / 103 40% 2 11.11.2026 -
Leonardo Lelo Braga Actif 139 / 133 40% 1 10.11.2026 -
Sikou Niakaté Braga Actif 129 / 135 40% 3 09.11.2026 -
Lazar Carević Famalicao Actif 122 / 134 40% 2 09.11.2026 -
Sergi Altimira Sporting CP Actif 142 / 141 40% 3 09.11.2026 -
Tamble Monteiro Rio Ave Actif 123 / 133 40% 4 07.11.2026 -
Giorgos Koutsias Famalicao Actif 121 / 123 40% 1 07.11.2026 -
Rubén Duarte Pumas UNAM Actif 135 / 126 40% 3 04.11.2026 -
Matthew Targett Hull City Actif 128 / 135 40% 1 04.11.2026 -
Alfonso Trezza Arouca Actif 129 / 134 40% 4 03.11.2026 -
Pablo Ramón Racing Club Actif 130 / 126 40% 2 02.11.2026 -
Bright Arrey-Mbi Braga Actif 127 / 128 40% 1 02.11.2026 -
Gustavo Silva Vitoria Guimaraes Actif 126 / 124 40% 1 01.11.2026 -
Vitinho Botafogo Actif 138 / 130 40% 2 31.10.2026 -
Felipe Parra Envigado Actif 121 / 122 40% 1 31.10.2026 -
Gabriel Barbosa Farense Actif 113 / 94 40% 2 30.10.2026 -
Henrique Araújo Casa Pia Actif 127 / 119 40% 2 27.10.2026 -
Óscar Aranda Espanyol Actif 120 / 127 40% 1 27.10.2026 -
Ignacio Russo Tigre Actif 121 / 134 40% 1 27.10.2026 -
Lucas Veríssimo Santos Actif 133 / 141 40% 1 26.10.2026 -
Percy Erasmus SuperSport United Actif 123 / 134 40% 3 24.10.2026 -
Figueiredo Alverca Actif 129 / 134 40% 3 22.10.2026 -
Lucas Duarte Felgueiras Actif 99 / 101 40% 2 20.10.2026 -
Ángelo Preciado Atlético Mineiro Actif 134 / 126 40% 1 19.10.2026 -
Fabrício Bruno Cruzeiro Actif 142 / 134 40% 3 18.10.2026 -
Javi Sánchez Arouca Actif 128 / 130 40% 1 17.10.2026 -
Victor Araujo Veracruz Actif 145 / 143 40% 2 14.10.2026 -
Iván Martín Racing Club Actif 142 / 145 40% 1 12.10.2026 -
Richard Ledezma Guadalajara Actif 135 / 129 40% 1 10.10.2026 -
Luis Ingolotti Atlético Tucumán Actif 118 / 129 40% 1 07.10.2026 -
Eduardo Quaresma Sporting CP Actif 147 / 131 40% 1 06.10.2026 -
Isidro Pitta Bragantino Actif 133 / 129 40% 1 05.10.2026 -
Nathan Trott Cardiff City Actif 112 / 115 40% 1 04.10.2026 -
Manuel Baldé Wadi Degla Actif 100 / 98 40% 1 30.09.2026 -
Nicolás Sumavil Platense Actif 123 / 116 40% 1 30.09.2026 -
Lucas Cañizares Tondela Actif 99 / 121 40% 1 30.09.2026 -
Matheus Henrique Cruzeiro Actif 132 / 125 40% 1 29.09.2026 -
Zeno Debast Sporting CP Actif 137 / 131 40% 1 29.09.2026 -
Luciano Juba Bahia Actif 129 / 130 40% 2 28.09.2026 -
Luan Santos Imotski Actif 92 / 78 40% 1 26.09.2026 -
Cheikh Sabaly Vancouver Whitecaps Actif 129 / 125 40% 1 24.09.2026 -
Dominik Steczyk Académico de Viseu Actif 97 / 99 40% 1 24.09.2026 -
Bryan Limbombe Maritimo Actif 111 / 99 40% 1 23.09.2026 -
Korede Osundina Casa Pia Actif 112 / 109 40% 1 21.09.2026 -
Dylan Nandín Arouca Actif 110 / 102 40% 1 19.09.2026 -
Cezary Miszta Rio Ave Actif 123 / 133 40% 2 15.09.2026 -
Lucão Gil Vicente Actif 119 / 109 40% 1 15.09.2026 -
Richard Ríos Benfica Actif 145 / 153 40% 2 12.09.2026 -
Joaquín Piquerez Palmeiras Actif 136 / 132 40% 1 12.09.2026 -
Alberto Costa Porto Actif 141 / 130 40% 1 11.09.2026 -
Mauro Arambarri River Plate Actif 152 / 159 40% 1 08.09.2026 -
Nicolás Fernández Mercau New York City Actif 136 / 134 40% 1 08.09.2026 -
Negueba Mirassol Actif 118 / 133 40% 1 07.09.2026 -
Nehuén Pérez Porto Actif 134 / 130 40% 2 06.09.2026 -
Iván Fresneda Sporting CP Actif 132 / 155 40% 1 02.09.2026 -
Gonçalo Oliveira Benfica Actif 110 / 98 40% 1 02.08.2026 -
José Sampaio Vizela Actif 112 / 110 40% 1 01.08.2026 -
Josh Wynder Benfica Actif 103 / 101 40% 1 01.08.2026 -